Lyman, Washington
Current Conditions -  °F | °C
As of 4:55 AM on Friday 19 Dec 2014 (Local Time) from KBVS Reporting Station
Overcast Overcast  
Wind Chill: 44°   Ceiling: 1900
Heat Index: 48°   Visibility: 10mi
Dew Point: 45°   Wind: 10mph
Humidity: 87%   Direction: 170°S
Pressure: 29.79"   Gusts: 17mph
Location:  48.53°N, 122.06°W
Report Text: KBVS 191255Z AUTO 17009G15KT 10SM BKN019 OVC026 09/07 A2979 RMK A01 P000
Loading
Personal Weather Stations






























Interactive Weather Map New forecast layout! Learn more

10-Day Weather Forecast

Advertisements
Track Severe Weather on mobile